Time;durP1;ratioP1;P1;durP2;ratioP2;P2;SDS_P1;SDS_P2;PMS_P1;PMS_P2;Temp;Humidity;BMP_temperature;BMP_pressure;BME280_temperature;BME280_humidity;BME280_pressure;Samples;Min_cycle;Max_cycle;Signal;HPM_P1;HPM_P2
2023/02/15 00:00:23;;;;;;;14.27;11.10;;;18.00;38.20;;;;;;5116007;28;20181;-68
2023/02/15 00:02:50;;;;;;;14.13;10.48;;;17.90;38.20;;;;;;5115609;28;20228;-69
2023/02/15 00:05:17;;;;;;;16.25;11.15;;;17.90;38.20;;;;;;5112076;28;20238;-69
2023/02/15 00:07:45;;;;;;;15.57;11.07;;;17.90;38.10;;;;;;5115429;28;20220;-69
2023/02/15 00:10:12;;;;;;;15.75;11.93;;;17.90;38.10;;;;;;5115675;28;20603;-69
2023/02/15 00:12:39;;;;;;;17.40;11.63;;;17.90;38.10;;;;;;5115702;28;20217;-69
2023/02/15 00:15:07;;;;;;;15.00;11.00;;;18.00;38.20;;;;;;5105535;27;20239;-69
2023/02/15 00:17:36;;;;;;;15.02;11.32;;;17.90;38.10;;;;;;5094745;28;20221;-68
2023/02/15 00:20:03;;;;;;;14.43;10.70;;;17.90;38.10;;;;;;5094739;28;20649;-68
2023/02/15 00:22:30;;;;;;;14.20;10.95;;;17.90;38.10;;;;;;5094998;28;20279;-68
2023/02/15 00:24:57;;;;;;;15.15;10.70;;;17.90;38.10;;;;;;5101034;28;20670;-69
2023/02/15 00:27:25;;;;;;;15.15;11.18;;;17.90;38.10;;;;;;5112033;28;20217;-69
2023/02/15 00:29:52;;;;;;;14.15;11.00;;;17.90;38.10;;;;;;5100246;28;20185;-69
2023/02/15 00:32:19;;;;;;;15.23;11.05;;;17.90;38.10;;;;;;5115532;28;20201;-69
2023/02/15 00:34:47;;;;;;;15.73;11.98;;;17.90;38.10;;;;;;5108905;28;20631;-69
2023/02/15 00:37:14;;;;;;;15.68;11.05;;;17.80;38.00;;;;;;5094520;28;20298;-69
2023/02/15 00:39:41;;;;;;;16.88;11.23;;;17.80;38.00;;;;;;5095008;28;20255;-68
2023/02/15 00:42:09;;;;;;;17.50;11.07;;;17.80;38.00;;;;;;5094287;28;20784;-69
2023/02/15 00:44:36;;;;;;;14.00;10.43;;;17.80;38.00;;;;;;5096840;28;20186;-69
2023/02/15 00:47:03;;;;;;;16.98;10.85;;;17.80;38.00;;;;;;5114912;28;20193;-69
2023/02/15 00:49:30;;;;;;;14.55;10.73;;;17.80;38.00;;;;;;5078803;28;20266;-69
2023/02/15 00:51:59;;;;;;;14.30;10.65;;;17.80;38.00;;;;;;5114943;28;20720;-69
2023/02/15 00:54:26;;;;;;;12.75;10.60;;;17.80;38.00;;;;;;5111542;28;20221;-69
2023/02/15 00:56:53;;;;;;;14.85;11.48;;;17.80;37.90;;;;;;5094416;28;20186;-69
2023/02/15 00:59:20;;;;;;;14.25;10.60;;;17.80;38.00;;;;;;5094174;28;20259;-69
2023/02/15 01:01:47;;;;;;;14.65;11.27;;;17.80;38.00;;;;;;5094259;28;20186;-69
2023/02/15 01:04:15;;;;;;;14.27;10.40;;;17.80;38.00;;;;;;5094652;28;20287;-69
2023/02/15 01:06:42;;;;;;;15.48;10.68;;;17.80;37.90;;;;;;5114253;28;20582;-69
2023/02/15 01:09:13;;;;;;;14.55;10.85;;;17.80;37.90;;;;;;5112794;28;20266;-68
2023/02/15 01:11:40;;;;;;;15.73;10.55;;;17.80;37.90;;;;;;5113546;28;20234;-69
2023/02/15 01:14:07;;;;;;;14.40;10.63;;;17.80;37.90;;;;;;5114141;27;20229;-68
2023/02/15 01:16:34;;;;;;;14.10;10.88;;;17.80;37.90;;;;;;5092548;28;20229;-69
2023/02/15 01:19:03;;;;;;;14.77;11.30;;;17.80;37.90;;;;;;5094032;28;20218;-69
2023/02/15 01:21:30;;;;;;;13.80;10.65;;;17.80;37.90;;;;;;5092349;28;20201;-69
2023/02/15 01:23:57;;;;;;;13.77;11.00;;;17.80;37.90;;;;;;5093439;28;20774;-69
2023/02/15 01:26:25;;;;;;;13.68;10.13;;;17.80;37.90;;;;;;5110860;28;20224;-68
2023/02/15 01:28:52;;;;;;;13.90;10.52;;;17.70;37.80;;;;;;5093799;28;20304;-68
2023/02/15 01:31:21;;;;;;;15.70;11.05;;;17.70;37.80;;;;;;5092473;28;20269;-69
2023/02/15 01:33:49;;;;;;;13.23;10.65;;;17.70;37.80;;;;;;5093596;28;20304;-69
2023/02/15 01:36:17;;;;;;;14.02;10.52;;;17.70;37.80;;;;;;5110368;28;20308;-68
2023/02/15 01:38:44;;;;;;;15.45;10.18;;;17.70;37.80;;;;;;5114146;28;20307;-68
2023/02/15 01:41:26;;;;;;;13.90;10.30;;;17.70;37.80;;;;;;5113800;28;20272;-68
2023/02/15 01:43:57;;;;;;;13.88;10.40;;;17.70;37.80;;;;;;5113802;28;20232;-68
2023/02/15 01:46:28;;;;;;;14.98;10.68;;;17.70;37.80;;;;;;5096049;28;20272;-68
2023/02/15 01:49:00;;;;;;;14.48;10.52;;;17.70;37.80;;;;;;5092233;28;20226;-69
2023/02/15 01:51:30;;;;;;;14.77;10.32;;;17.70;37.80;;;;;;5093189;28;20277;-69
2023/02/15 01:54:02;;;;;;;12.77;10.13;;;17.70;37.80;;;;;;5093154;28;20310;-69
2023/02/15 01:56:34;;;;;;;14.32;10.48;;;17.70;37.80;;;;;;5110773;28;20193;-69
2023/02/15 01:59:07;;;;;;;13.25;10.60;;;17.70;37.80;;;;;;5113702;28;20307;-68
2023/02/15 02:01:35;;;;;;;12.88;9.60;;;17.70;37.80;;;;;;5113465;28;20268;-69
2023/02/15 02:04:10;;;;;;;13.02;10.20;;;17.60;37.70;;;;;;5113195;28;20694;-69
2023/02/15 02:06:40;;;;;;;13.57;10.07;;;17.60;37.70;;;;;;5095434;28;20182;-68
2023/02/15 02:09:07;;;;;;;13.48;10.10;;;17.60;37.70;;;;;;5092951;28;20572;-69
2023/02/15 02:11:35;;;;;;;14.23;10.65;;;17.60;37.70;;;;;;5092965;28;20247;-68
2023/02/15 02:14:04;;;;;;;14.85;10.10;;;17.70;37.80;;;;;;5093010;28;20306;-69
2023/02/15 02:16:40;;;;;;;13.75;10.35;;;17.60;37.70;;;;;;5109349;28;20712;-69
2023/02/15 02:19:38;;;;;;;12.75;10.00;;;17.70;37.80;;;;;;5113363;28;20246;-69
2023/02/15 02:22:40;;;;;;;14.50;10.07;;;17.60;37.60;;;;;;5111467;28;20193;-69
2023/02/15 02:25:37;;;;;;;13.02;9.82;;;17.60;37.60;;;;;;5107916;28;20740;-69
2023/02/15 02:28:19;;;;;;;13.90;9.65;;;17.60;37.60;;;;;;5092231;28;20771;-69
2023/02/15 02:31:29;;;;;;;13.75;9.95;;;17.60;37.60;;;;;;5091715;28;20247;-69
2023/02/15 02:34:06;;;;;;;13.10;9.70;;;17.60;37.50;;;;;;5092757;28;20286;-69
2023/02/15 02:36:40;;;;;;;13.10;10.05;;;17.60;37.60;;;;;;5107311;28;20220;-68
2023/02/15 02:39:19;;;;;;;14.07;9.70;;;17.60;37.60;;;;;;5113049;28;20213;-69
2023/02/15 02:41:56;;;;;;;13.55;9.60;;;17.50;37.50;;;;;;5112933;28;20555;-68
2023/02/15 02:44:27;;;;;;;12.35;9.73;;;17.60;37.60;;;;;;5110827;28;20262;-69
2023/02/15 02:46:58;;;;;;;14.75;10.02;;;17.50;37.50;;;;;;5106166;28;20659;-69
2023/02/15 02:49:36;;;;;;;11.93;9.38;;;17.50;37.50;;;;;;5092362;28;20248;-68
2023/02/15 02:52:06;;;;;;;12.48;9.48;;;17.50;37.50;;;;;;5092040;28;20643;-69
2023/02/15 02:54:36;;;;;;;11.55;9.73;;;17.50;37.50;;;;;;5095794;28;20290;-69
2023/02/15 02:57:06;;;;;;;12.52;8.88;;;17.50;37.50;;;;;;5112576;28;20784;-69
2023/02/15 02:59:37;;;;;;;15.30;10.65;;;17.50;37.50;;;;;;5112904;28;20274;-69
2023/02/15 03:02:12;;;;;;;12.15;9.27;;;17.50;37.50;;;;;;5112867;28;20182;-69
2023/02/15 03:04:46;;;;;;;11.63;9.52;;;17.50;37.50;;;;;;5089352;28;20236;-69
2023/02/15 03:07:21;;;;;;;12.55;9.90;;;17.50;37.40;;;;;;5092555;28;20192;-69
2023/02/15 03:09:52;;;;;;;13.93;9.02;;;17.50;37.40;;;;;;5092344;28;20258;-69
2023/02/15 03:12:22;;;;;;;12.20;9.13;;;17.50;37.40;;;;;;5092114;28;20236;-68
2023/02/15 03:14:52;;;;;;;12.45;9.43;;;17.50;37.40;;;;;;5095286;28;20627;-68
2023/02/15 03:17:23;;;;;;;11.95;9.27;;;17.50;37.40;;;;;;5112106;28;20189;-69
2023/02/15 03:19:56;;;;;;;12.68;9.57;;;17.50;37.40;;;;;;5112259;28;20759;-69
2023/02/15 03:22:30;;;;;;;11.27;9.18;;;17.50;37.40;;;;;;5112426;28;20185;-69
2023/02/15 03:25:00;;;;;;;11.73;8.57;;;17.50;37.30;;;;;;5106421;28;20221;-69
2023/02/15 03:27:32;;;;;;;13.23;9.55;;;17.50;38.10;;;;;;5092039;28;20255;-68
2023/02/15 03:30:01;;;;;;;13.10;9.45;;;17.50;37.30;;;;;;5092076;28;20697;-68
2023/02/15 03:32:32;;;;;;;10.82;8.55;;;17.50;37.40;;;;;;5091771;28;20240;-68
2023/02/15 03:35:01;;;;;;;11.63;8.70;;;17.50;37.30;;;;;;5097004;28;20266;-68
2023/02/15 03:37:36;;;;;;;12.38;9.20;;;17.50;37.30;;;;;;5111977;28;20287;-68
2023/02/15 03:42:56;;;;;;;12.13;8.82;;;17.40;37.20;;;;;;5115675;28;20193;-69
2023/02/15 03:45:28;;;;;;;12.75;8.85;;;17.40;37.20;;;;;;5107412;28;20271;-69
2023/02/15 03:47:59;;;;;;;11.77;9.38;;;17.40;37.20;;;;;;5095348;28;20190;-69
2023/02/15 03:53:20;;;;;;;12.15;9.02;;;17.40;37.20;;;;;;5095192;28;20205;-69
2023/02/15 03:55:48;;;;;;;11.88;9.18;;;17.40;37.20;;;;;;5105711;28;20656;-68
2023/02/15 04:03:54;;;;;;;11.40;9.00;;;17.40;37.20;;;;;;5115529;28;20270;-68
2023/02/15 04:06:22;;;;;;;13.13;9.07;;;17.40;37.20;;;;;;5113239;27;20597;-69
2023/02/15 04:11:34;;;;;;;12.82;9.00;;;17.40;37.10;;;;;;5095264;28;20654;-69
2023/02/15 04:16:02;;;;;;;11.82;8.60;;;17.40;37.10;;;;;;5093682;28;20218;-68
2023/02/15 04:16:47;;;;;;;10.60;8.23;;;17.40;37.10;;;;;;5113598;28;20289;-69
2023/02/15 04:27:29;;;;;;;12.40;8.40;;;17.40;37.10;;;;;;5099154;28;20197;-68
2023/02/15 04:29:56;;;;;;;12.00;8.80;;;17.40;37.80;;;;;;5094752;28;20624;-69
2023/02/15 04:32:23;;;;;;;11.93;8.68;;;17.40;37.10;;;;;;5094967;28;20244;-68
2023/02/15 04:34:50;;;;;;;11.05;8.20;;;17.30;37.00;;;;;;5096046;28;20225;-68
2023/02/15 04:37:18;;;;;;;12.43;8.52;;;17.40;37.10;;;;;;5114789;28;20233;-68
2023/02/15 04:39:46;;;;;;;9.73;8.07;;;17.30;37.00;;;;;;5114936;28;20262;-68
2023/02/15 04:42:13;;;;;;;12.20;8.52;;;17.30;37.00;;;;;;5115069;28;20185;-69
2023/02/15 04:44:40;;;;;;;13.85;8.55;;;17.30;37.00;;;;;;5114417;28;20274;-70
2023/02/15 04:47:07;;;;;;;12.45;8.15;;;17.30;37.00;;;;;;5095001;28;20267;-69
2023/02/15 04:49:34;;;;;;;11.88;8.88;;;17.30;37.00;;;;;;5092974;28;20267;-68
2023/02/15 04:52:02;;;;;;;11.52;8.52;;;17.30;37.00;;;;;;5094275;28;20194;-68
2023/02/15 04:54:30;;;;;;;10.15;7.90;;;17.30;37.00;;;;;;5094578;28;20226;-69
2023/02/15 04:56:57;;;;;;;13.75;8.50;;;17.30;37.00;;;;;;5113049;28;20189;-69
2023/02/15 04:59:25;;;;;;;12.30;8.95;;;17.30;37.60;;;;;;5114837;28;20213;-69
2023/02/15 05:01:52;;;;;;;11.02;7.97;;;17.30;37.00;;;;;;5114609;28;20200;-68
2023/02/15 05:04:19;;;;;;;13.23;8.45;;;17.30;37.00;;;;;;5114495;28;20297;-69
2023/02/15 05:06:46;;;;;;;10.90;8.55;;;17.30;37.00;;;;;;5113580;28;20190;-69
2023/02/15 05:09:14;;;;;;;10.50;8.32;;;17.30;37.00;;;;;;5114483;28;20225;-69
2023/02/15 05:11:42;;;;;;;9.05;7.80;;;17.30;37.00;;;;;;5114196;28;20667;-69
2023/02/15 05:14:10;;;;;;;14.43;9.00;;;17.30;37.00;;;;;;5114295;28;20270;-69
2023/02/15 05:16:37;;;;;;;10.13;8.15;;;17.30;37.00;;;;;;5099162;28;20235;-69
2023/02/15 05:19:04;;;;;;;11.48;8.57;;;17.30;37.00;;;;;;5093904;28;20247;-68
2023/02/15 05:21:32;;;;;;;10.65;8.18;;;17.20;36.90;;;;;;5093605;28;20244;-69
2023/02/15 05:23:59;;;;;;;9.73;7.57;;;17.30;37.00;;;;;;5093653;28;20274;-68
2023/02/15 05:29:13;;;;;;;9.88;8.13;;;17.20;36.90;;;;;;5093598;28;20228;-68
2023/02/15 05:31:41;;;;;;;10.45;8.13;;;17.30;37.00;;;;;;5093556;28;20190;-68
2023/02/15 05:34:08;;;;;;;12.65;7.95;;;17.30;37.00;;;;;;5093638;28;20218;-69
2023/02/15 05:36:35;;;;;;;9.95;8.13;;;17.20;36.90;;;;;;5105526;28;20788;-68
2023/02/15 05:39:05;;;;;;;11.35;8.35;;;17.20;36.90;;;;;;5113965;28;20205;-69
2023/02/15 05:41:32;;;;;;;10.27;7.82;;;17.20;36.90;;;;;;5113919;28;20185;-68
2023/02/15 05:44:00;;;;;;;10.10;7.63;;;17.20;36.90;;;;;;5113616;28;20213;-68
2023/02/15 05:46:28;;;;;;;13.25;8.25;;;17.20;36.90;;;;;;5101192;28;20544;-69
2023/02/15 05:48:55;;;;;;;11.65;8.30;;;17.20;37.00;;;;;;5093339;28;20190;-69
2023/02/15 05:51:22;;;;;;;9.90;7.88;;;17.30;37.00;;;;;;5092977;28;20606;-68
2023/02/15 05:53:50;;;;;;;9.07;7.45;;;17.20;36.90;;;;;;5093247;28;20190;-69
2023/02/15 05:56:17;;;;;;;9.68;7.93;;;17.20;36.90;;;;;;5103435;28;20266;-68
2023/02/15 05:58:44;;;;;;;9.80;7.45;;;17.20;37.00;;;;;;5112456;28;20704;-69
2023/02/15 06:01:12;;;;;;;9.10;7.60;;;17.30;37.10;;;;;;5112215;28;20213;-68
2023/02/15 06:03:41;;;;;;;11.57;8.32;;;17.30;37.10;;;;;;5112632;28;20189;-68
2023/02/15 06:06:09;;;;;;;9.65;7.80;;;17.30;37.20;;;;;;5104987;28;20263;-69
2023/02/15 06:08:38;;;;;;;11.45;7.78;;;17.30;37.20;;;;;;5093130;28;20249;-69
2023/02/15 06:11:06;;;;;;;9.15;7.53;;;17.30;37.20;;;;;;5093127;28;20264;-69
2023/02/15 06:13:33;;;;;;;8.45;7.38;;;17.30;37.20;;;;;;5092955;28;20243;-69
2023/02/15 06:16:01;;;;;;;8.95;7.32;;;17.30;37.30;;;;;;5099884;28;20570;-69
2023/02/15 06:18:28;;;;;;;7.70;6.60;;;17.40;37.40;;;;;;5113306;28;20194;-69
2023/02/15 06:20:58;;;;;;;10.02;7.15;;;17.40;37.40;;;;;;5113178;28;20281;-68
2023/02/15 06:23:25;;;;;;;9.25;7.07;;;17.40;37.40;;;;;;5113216;28;20218;-69
2023/02/15 06:25:52;;;;;;;10.98;7.45;;;17.40;37.40;;;;;;5111968;28;20274;-69
2023/02/15 06:28:19;;;;;;;7.35;6.45;;;17.50;37.50;;;;;;5112873;28;20190;-68
2023/02/15 06:30:47;;;;;;;9.35;7.10;;;17.50;37.50;;;;;;5113037;28;20209;-69
2023/02/15 06:33:14;;;;;;;9.20;7.00;;;17.50;37.60;;;;;;5112939;28;20185;-69
2023/02/15 06:35:41;;;;;;;8.30;7.20;;;17.50;37.60;;;;;;5108595;28;20217;-69
2023/02/15 06:38:10;;;;;;;9.48;7.25;;;17.50;37.60;;;;;;5092682;28;20239;-69
2023/02/15 06:40:37;;;;;;;10.60;7.25;;;17.50;37.60;;;;;;5092633;28;20214;-68
2023/02/15 06:43:04;;;;;;;10.88;7.70;;;17.50;37.60;;;;;;5092266;28;20704;-69
2023/02/15 06:45:31;;;;;;;10.38;8.05;;;17.50;37.50;;;;;;5094230;28;20229;-70
2023/02/15 06:47:58;;;;;;;11.63;8.40;;;17.60;37.70;;;;;;5112678;28;20197;-69
2023/02/15 06:50:26;;;;;;;10.95;8.05;;;17.60;38.40;;;;;;5112853;28;20213;-68
2023/02/15 06:52:57;;;;;;;11.88;7.88;;;17.60;39.40;;;;;;5112890;28;20631;-69
2023/02/15 06:55:26;;;;;;;10.45;7.63;;;17.60;40.30;;;;;;5111877;28;20217;-68
2023/02/15 06:57:53;;;;;;;12.15;7.55;;;17.60;39.70;;;;;;5096486;28;20178;-68
2023/02/15 07:00:22;;;;;;;10.68;7.38;;;17.60;39.40;;;;;;5112697;28;20269;-67
2023/02/15 07:02:55;;;;;;;9.50;7.03;;;17.70;39.40;;;;;;5111218;28;20196;-67
2023/02/15 07:05:24;;;;;;;10.18;7.40;;;17.70;39.40;;;;;;5112207;28;20231;-67
2023/02/15 07:07:51;;;;;;;9.77;7.85;;;17.70;39.30;;;;;;5076662;28;20193;-67
2023/02/15 07:10:18;;;;;;;9.65;7.32;;;17.70;39.20;;;;;;5111551;28;20213;-67
2023/02/15 07:12:46;;;;;;;11.52;7.15;;;17.70;39.10;;;;;;5112334;28;20234;-67
2023/02/15 07:15:16;;;;;;;9.00;6.93;;;17.80;39.10;;;;;;5114842;28;20220;-67
2023/02/15 07:17:44;;;;;;;9.40;7.28;;;17.70;39.10;;;;;;5097251;28;20251;-67
2023/02/15 07:20:16;;;;;;;9.55;7.13;;;17.80;39.10;;;;;;5096315;28;20214;-67
2023/02/15 07:22:44;;;;;;;8.73;7.05;;;17.80;39.00;;;;;;5095861;28;20192;-67
2023/02/15 07:25:12;;;;;;;8.90;6.85;;;17.80;39.00;;;;;;5095990;28;20229;-67
2023/02/15 07:27:41;;;;;;;9.15;7.13;;;17.80;39.00;;;;;;5114003;28;20225;-67
2023/02/15 07:30:12;;;;;;;8.88;7.05;;;17.80;39.00;;;;;;5116652;28;20212;-67
2023/02/15 07:33:22;;;;;;;9.45;6.70;;;17.80;38.90;;;;;;5080640;28;20601;-67
2023/02/15 07:35:27;;;;;;;10.43;6.40;;;17.80;38.90;;;;;;5115717;28;20220;-68
2023/02/15 07:37:55;;;;;;;8.98;6.55;;;17.80;38.90;;;;;;5115560;28;20185;-67
2023/02/15 07:40:23;;;;;;;10.30;6.30;;;17.90;38.90;;;;;;5114770;28;20220;-67
2023/02/15 07:42:54;;;;;;;9.05;6.70;;;17.90;38.90;;;;;;5115974;28;20641;-67
2023/02/15 07:45:23;;;;;;;10.48;6.88;;;17.90;38.90;;;;;;5115644;28;20721;-67
2023/02/15 07:47:50;;;;;;;10.45;8.02;;;17.90;38.90;;;;;;5093376;28;21041;-68
2023/02/15 07:50:18;;;;;;;12.00;9.05;;;17.90;38.90;;;;;;5093027;28;20218;-67
2023/02/15 07:52:46;;;;;;;11.68;9.23;;;17.90;38.70;;;;;;5110132;28;20189;-68
2023/02/15 07:55:14;;;;;;;12.45;9.07;;;17.90;38.60;;;;;;5095570;27;20218;-68
2023/02/15 07:57:45;;;;;;;15.30;8.52;;;17.90;38.50;;;;;;5062726;28;20288;-68
2023/02/15 08:00:23;;;;;;;13.40;9.80;;;17.90;38.50;;;;;;5094518;28;20279;-68
2023/02/15 08:03:12;;;;;;;15.40;9.15;;;17.90;38.60;;;;;;5095727;28;20189;-68
2023/02/15 08:05:42;;;;;;;10.70;8.48;;;17.90;38.60;;;;;;5075680;28;20305;-68
2023/02/15 08:08:29;;;;;;;10.93;8.68;;;17.90;38.60;;;;;;5092134;28;20193;-68
2023/02/15 08:13:53;;;;;;;16.08;8.65;;;17.90;38.60;;;;;;5099507;28;20777;-68
2023/02/15 08:16:26;;;;;;;18.80;8.93;;;17.90;38.60;;;;;;5095265;28;20225;-70
2023/02/15 08:18:56;;;;;;;12.50;8.50;;;18.00;38.70;;;;;;5096494;28;20679;-68
2023/02/15 08:21:24;;;;;;;11.63;8.82;;;17.90;38.60;;;;;;5092723;28;20587;-70
2023/02/15 08:23:52;;;;;;;14.77;8.88;;;18.00;38.60;;;;;;5087444;28;20259;-69
2023/02/15 08:26:19;;;;;;;11.45;8.07;;;18.00;38.60;;;;;;5096212;28;20233;-69
2023/02/15 08:28:48;;;;;;;12.52;9.02;;;18.00;38.70;;;;;;5095283;28;20193;-68
2023/02/15 08:31:16;;;;;;;13.20;8.55;;;18.00;38.70;;;;;;5055723;28;20221;-68
2023/02/15 08:33:45;;;;;;;15.80;8.63;;;18.10;38.80;;;;;;5100266;28;20198;-68
2023/02/15 08:36:15;;;;;;;12.80;8.90;;;18.10;38.70;;;;;;5097704;28;20248;-67
2023/02/15 08:38:45;;;;;;;13.23;8.32;;;18.10;38.70;;;;;;5092711;28;20209;-69
2023/02/15 08:41:15;;;;;;;14.30;8.02;;;18.20;38.70;;;;;;5106884;28;20221;-68
2023/02/15 08:43:43;;;;;;;12.50;7.90;;;18.20;38.70;;;;;;5097475;28;20221;-68
2023/02/15 08:46:11;;;;;;;13.65;7.80;;;18.20;38.70;;;;;;5093663;28;20240;-67
2023/02/15 08:48:39;;;;;;;11.05;7.32;;;18.20;38.70;;;;;;5091769;27;20251;-67
2023/02/15 08:51:10;;;;;;;14.27;8.57;;;18.20;38.70;;;;;;5091366;28;20249;-67
2023/02/15 08:53:39;;;;;;;14.32;7.55;;;18.30;38.90;;;;;;5101887;27;20199;-67
2023/02/15 08:56:08;;;;;;;11.45;8.02;;;18.30;38.90;;;;;;5096199;27;20217;-67
2023/02/15 08:58:35;;;;;;;11.43;7.63;;;18.30;38.90;;;;;;5106630;28;20197;-67
2023/02/15 09:01:08;;;;;;;11.38;8.02;;;18.30;38.90;;;;;;5091930;28;20267;-67
2023/02/15 09:03:36;;;;;;;11.25;7.50;;;18.30;39.30;;;;;;5076892;27;20209;-67
2023/02/15 09:06:06;;;;;;;11.60;7.53;;;18.40;39.30;;;;;;5084507;27;20255;-67
2023/02/15 09:08:34;;;;;;;11.60;7.53;;;18.40;39.20;;;;;;5077130;27;20913;-68
2023/02/15 09:11:11;;;;;;;10.77;6.78;;;18.40;39.80;;;;;;5095686;27;20777;-68
2023/02/15 09:13:39;;;;;;;10.98;7.28;;;18.40;39.10;;;;;;5099156;27;20678;-68
2023/02/15 09:16:09;;;;;;;10.55;7.55;;;18.40;39.10;;;;;;5095191;27;20566;-67
2023/02/15 09:18:38;;;;;;;14.50;7.90;;;18.40;39.00;;;;;;5095967;27;20201;-68
2023/02/15 09:21:08;;;;;;;13.73;7.82;;;18.40;38.90;;;;;;5098946;27;20280;-68
2023/02/15 09:23:36;;;;;;;8.75;7.18;;;18.40;39.00;;;;;;5100325;27;20235;-68
2023/02/15 09:26:06;;;;;;;13.82;7.57;;;18.50;39.00;;;;;;5099850;28;20229;-68
2023/02/15 09:28:36;;;;;;;15.57;7.78;;;18.40;38.90;;;;;;5096517;27;20204;-68
2023/02/15 09:31:08;;;;;;;10.48;7.10;;;18.50;39.00;;;;;;5098072;27;20213;-68
2023/02/15 09:33:36;;;;;;;10.35;7.65;;;18.40;38.90;;;;;;5100115;27;20216;-67
2023/02/15 09:36:03;;;;;;;9.15;6.97;;;18.40;38.90;;;;;;5093288;27;20233;-68
2023/02/15 09:38:30;;;;;;;9.23;7.28;;;18.50;39.00;;;;;;5094073;27;20255;-68
2023/02/15 09:41:13;;;;;;;10.07;7.40;;;18.40;38.90;;;;;;5096740;27;20224;-68
2023/02/15 09:43:49;;;;;;;11.20;7.50;;;18.50;39.00;;;;;;5097837;27;20202;-68
2023/02/15 09:46:45;;;;;;;10.80;7.10;;;18.50;39.00;;;;;;5094984;28;20282;-68
2023/02/15 09:49:22;;;;;;;8.82;7.03;;;18.50;39.00;;;;;;5095591;27;20256;-69
2023/02/15 09:52:29;;;;;;;10.98;7.82;;;18.50;39.00;;;;;;5097792;27;20225;-67
2023/02/15 09:55:10;;;;;;;12.32;7.03;;;18.40;38.90;;;;;;5097541;28;20234;-68
2023/02/15 09:57:44;;;;;;;9.25;7.30;;;18.50;39.00;;;;;;5095413;28;20615;-66
2023/02/15 10:00:22;;;;;;;12.13;7.63;;;18.50;39.00;;;;;;5092422;27;20750;-67
2023/02/15 10:03:08;;;;;;;10.25;7.20;;;18.50;38.90;;;;;;5090874;28;20225;-67
2023/02/15 10:05:46;;;;;;;10.45;7.68;;;18.50;39.00;;;;;;5095370;28;20236;-70
2023/02/15 10:08:49;;;;;;;10.77;7.55;;;18.50;39.00;;;;;;5094436;28;20193;-69
2023/02/15 10:14:20;;;;;;;8.98;7.20;;;18.50;39.00;;;;;;5101104;27;20192;-73
2023/02/15 10:16:57;;;;;;;11.40;7.97;;;18.50;39.00;;;;;;5092936;28;20325;-73
2023/02/15 10:19:35;;;;;;;14.45;8.40;;;18.50;39.00;;;;;;5094925;27;20194;-74
2023/02/15 10:22:16;;;;;;;10.13;7.82;;;18.50;39.00;;;;;;5094606;28;20217;-74
2023/02/15 10:25:11;;;;;;;10.93;8.35;;;18.60;39.10;;;;;;5094942;27;20285;-74
2023/02/15 10:27:46;;;;;;;14.88;8.32;;;18.60;39.20;;;;;;5094538;27;20209;-73
2023/02/15 10:30:14;;;;;;;14.23;7.65;;;18.60;39.20;;;;;;5092687;28;20272;-74
2023/02/15 10:32:52;;;;;;;11.05;7.75;;;18.60;39.20;;;;;;5096725;28;20209;-73
2023/02/15 10:35:27;;;;;;;13.30;7.90;;;18.60;39.20;;;;;;5097315;27;20189;-73
2023/02/15 10:38:30;;;;;;;10.38;7.75;;;18.60;39.20;;;;;;5094549;28;20201;-72
2023/02/15 10:41:10;;;;;;;8.88;7.30;;;18.60;39.20;;;;;;5093682;28;20659;-74
2023/02/15 10:44:03;;;;;;;10.55;7.53;;;18.60;39.20;;;;;;5094723;28;20197;-73
2023/02/15 10:46:51;;;;;;;9.02;6.90;;;18.60;39.20;;;;;;5090813;28;20233;-73
2023/02/15 10:49:41;;;;;;;13.07;7.97;;;18.60;39.20;;;;;;5091605;28;20751;-70
2023/02/15 10:52:20;;;;;;;11.27;7.63;;;18.60;39.20;;;;;;5092163;28;20862;-71
2023/02/15 10:54:53;;;;;;;10.23;7.55;;;18.60;39.30;;;;;;5099863;28;20240;-69
2023/02/15 10:57:26;;;;;;;10.85;7.28;;;18.60;39.30;;;;;;5094361;28;20217;-72
2023/02/15 11:00:05;;;;;;;10.40;7.53;;;18.70;39.30;;;;;;5094588;28;20202;-70
2023/02/15 11:02:51;;;;;;;11.15;7.70;;;18.70;39.30;;;;;;5095304;28;20266;-72
2023/02/15 11:05:41;;;;;;;11.05;7.43;;;18.70;39.40;;;;;;5095438;28;20193;-71
2023/02/15 11:08:11;;;;;;;9.50;6.75;;;18.70;39.40;;;;;;5097276;28;20677;-72
2023/02/15 11:10:43;;;;;;;14.00;7.03;;;18.70;39.50;;;;;;5097432;28;20229;-72
2023/02/15 11:13:14;;;;;;;12.13;7.65;;;18.80;39.60;;;;;;5095361;28;20212;-72
2023/02/15 11:15:45;;;;;;;13.40;7.32;;;18.80;39.70;;;;;;5093419;28;20224;-72
2023/02/15 11:18:20;;;;;;;9.77;6.90;;;18.80;39.60;;;;;;5098153;28;20248;-72
2023/02/15 11:20:56;;;;;;;12.05;7.30;;;18.80;39.60;;;;;;5090720;28;20642;-72
2023/02/15 11:23:26;;;;;;;12.05;7.07;;;18.80;39.70;;;;;;5096839;28;20220;-71
2023/02/15 11:25:58;;;;;;;13.25;7.15;;;18.80;39.70;;;;;;5093509;28;20301;-71
2023/02/15 11:28:29;;;;;;;10.13;7.25;;;18.80;39.80;;;;;;5087931;28;20194;-70
2023/02/15 11:31:11;;;;;;;11.00;7.50;;;18.90;39.90;;;;;;5097300;28;20217;-70
2023/02/15 11:33:43;;;;;;;9.18;7.20;;;18.90;39.90;;;;;;5102106;28;20197;-71
2023/02/15 11:36:19;;;;;;;13.93;7.88;;;18.90;40.00;;;;;;5103199;28;20229;-69
2023/02/15 11:38:50;;;;;;;11.50;7.85;;;18.90;40.10;;;;;;5065728;28;20201;-71
2023/02/15 11:41:23;;;;;;;13.65;8.13;;;18.90;40.10;;;;;;5096262;28;20217;-71
2023/02/15 11:44:01;;;;;;;14.55;7.82;;;18.90;40.10;;;;;;5100773;28;20662;-72
2023/02/15 11:46:29;;;;;;;16.63;7.60;;;18.90;40.10;;;;;;5092491;28;20312;-71
2023/02/15 11:48:59;;;;;;;10.18;7.53;;;18.90;40.10;;;;;;5099082;28;20189;-70
2023/02/15 11:51:28;;;;;;;9.73;7.72;;;18.90;40.10;;;;;;5080949;28;20218;-71
2023/02/15 11:53:57;;;;;;;10.30;7.97;;;18.90;40.10;;;;;;5098015;28;20197;-72
2023/02/15 11:56:26;;;;;;;10.82;8.02;;;18.90;40.10;;;;;;5100577;28;20217;-71
2023/02/15 11:58:57;;;;;;;11.75;8.57;;;18.90;40.10;;;;;;5101941;28;20690;-69
2023/02/15 12:01:31;;;;;;;13.32;8.60;;;18.90;40.10;;;;;;5099874;28;20290;-71
2023/02/15 12:04:02;;;;;;;11.23;8.18;;;18.90;40.10;;;;;;5104364;27;20193;-72
2023/02/15 12:06:34;;;;;;;12.15;7.68;;;18.90;40.10;;;;;;5097561;27;20228;-70
2023/02/15 12:09:07;;;;;;;10.68;8.38;;;18.90;40.10;;;;;;5103691;28;20190;-71
2023/02/15 12:11:38;;;;;;;12.10;7.85;;;18.90;40.10;;;;;;5099101;27;20221;-70
2023/02/15 12:14:07;;;;;;;11.68;7.22;;;18.90;40.20;;;;;;5101846;27;20201;-71
2023/02/15 12:16:43;;;;;;;12.00;7.97;;;18.90;40.20;;;;;;5102290;27;20236;-70
2023/02/15 12:19:29;;;;;;;10.40;7.50;;;18.90;40.40;;;;;;5096908;28;20197;-72
2023/02/15 12:21:59;;;;;;;12.20;7.70;;;18.90;40.40;;;;;;5099412;27;20229;-71
2023/02/15 12:24:29;;;;;;;11.57;8.05;;;18.90;40.40;;;;;;5104113;28;20209;-71
2023/02/15 12:27:03;;;;;;;14.05;7.82;;;18.90;40.40;;;;;;5100925;27;20228;-71
2023/02/15 12:29:36;;;;;;;10.63;7.75;;;18.90;40.40;;;;;;5098101;27;20197;-71
2023/02/15 12:32:06;;;;;;;13.88;7.75;;;19.00;40.50;;;;;;5101379;27;20228;-72
2023/02/15 12:34:41;;;;;;;11.80;7.75;;;19.00;40.50;;;;;;5101835;28;20682;-71
2023/02/15 12:37:17;;;;;;;11.38;7.80;;;19.00;40.50;;;;;;5101333;27;20247;-71
2023/02/15 12:39:54;;;;;;;14.02;7.63;;;19.00;40.50;;;;;;5102871;27;20201;-71
2023/02/15 12:42:23;;;;;;;11.38;7.80;;;18.90;40.40;;;;;;5099800;27;20214;-72
2023/02/15 12:44:59;;;;;;;12.63;7.75;;;19.00;40.50;;;;;;5103775;28;20200;-71
2023/02/15 12:47:29;;;;;;;9.07;7.28;;;19.00;40.50;;;;;;5102716;27;20248;-71
2023/02/15 12:50:16;;;;;;;8.63;6.78;;;19.00;40.50;;;;;;5096765;27;20205;-71
2023/02/15 12:52:46;;;;;;;9.02;6.80;;;19.00;40.50;;;;;;5099765;27;20224;-69
2023/02/15 12:55:22;;;;;;;12.80;7.70;;;19.00;40.50;;;;;;5098840;28;20186;-71
2023/02/15 12:57:50;;;;;;;9.32;7.68;;;19.00;40.50;;;;;;5096460;27;20263;-71
2023/02/15 13:00:31;;;;;;;10.65;7.07;;;19.00;40.50;;;;;;5092093;28;20247;-68
2023/02/15 13:03:00;;;;;;;9.63;7.47;;;19.00;40.50;;;;;;5093369;28;20974;-72
2023/02/15 13:05:33;;;;;;;11.88;7.20;;;19.00;40.50;;;;;;5096008;27;20201;-73
2023/02/15 13:08:05;;;;;;;12.90;7.40;;;19.00;40.50;;;;;;5093897;27;20225;-70
2023/02/15 13:10:37;;;;;;;12.63;7.72;;;19.00;40.60;;;;;;5098673;27;20705;-71
2023/02/15 13:13:11;;;;;;;10.93;8.05;;;19.10;40.60;;;;;;5094819;27;20229;-71
2023/02/15 13:15:42;;;;;;;11.65;7.57;;;19.10;40.60;;;;;;5090318;27;20659;-70
2023/02/15 13:18:16;;;;;;;18.88;7.55;;;19.10;40.60;;;;;;5101599;27;20228;-71
2023/02/15 13:20:45;;;;;;;12.57;7.82;;;19.10;40.60;;;;;;5091828;27;20199;-71
2023/02/15 13:23:27;;;;;;;13.15;8.05;;;19.20;40.70;;;;;;5085815;27;20744;-72
2023/02/15 13:25:57;;;;;;;12.32;7.78;;;19.10;40.70;;;;;;5092258;28;20202;-71
2023/02/15 13:28:29;;;;;;;10.20;7.25;;;19.20;40.80;;;;;;5102878;27;20229;-73